Eggleston, Virginia
Current Conditions -  °F | °C
As of 2:55 PM on Friday 19 Dec 2014 (Local Time) from KPSK Reporting Station
Clear Clear  
Wind Chill: 39°   Ceiling: Unl
Heat Index: 43°   Visibility: 10mi
Dew Point: 27°   Wind: 7mph
Humidity: 54%   Direction: 270°W
Pressure: 30.12"   Gusts: NA
Location:  37.29°N, 80.62°W
Report Text: KPSK 191955Z AUTO 27006KT 10SM CLR 06/M03 A3012 RMK AO2 T00601027
Loading
Personal Weather Stations






























Interactive Weather Map New forecast layout! Learn more

10-Day Weather Forecast

Advertisements
Track Severe Weather on mobile